KOLF

Details ICAO KOLF (OLF)
Name L M Clayton
Region United States
Timezone America/Denver (UTC-6.0)
Plans Departing 1
Arriving 3
Stats Elevation 1,986 ft / 605 m (AMSL)
Location 48.094505° -105.575050°
Runways 1
Magnetic Variation 9.223° E
Sunrise 2018-05-26 11:12:37 UTC / 2018-05-26 05:12:37 Local
Sunset 2018-05-27 02:49:00 UTC / 2018-05-26 20:49:00 Local
Advertisement - Login to hide

Runways

ID Width Length Bearing (true) Bearing (mag) Surface Threshold Offset Overrun Length
11 100 ft / 30 m 5,080 ft / 1,548 m 120.05° 110.83° Asphalt 0 ft / 0 m 0 ft / 0 m
29 100 ft / 30 m 5,080 ft / 1,548 m 300.07° 290.85° Asphalt 0 ft / 0 m 0 ft / 0 m

Map

Weather


0- 5 10 15 20 25 30 35+ Temperature / ° C

Clouds and Precipitation
Forecast for 2018-05-26 06:00 UTC. Updated 5 hours ago

Ground ~20,000 ft ~40,000 ft Winds

METAR

KOLF 260953Z AUTO 00000KT 10SM CLR 12/10 A2975 RMK AO2 SLP066 T01170100 TSNO

TAF

TAF KOLF 260520Z 2606/2706 00000KT P6SM SKC FM261700 15008KT P6SM FEW110 FM270200 04005KT P6SM BKN100 PROB30 2702/2703 4SM TS OVC025CB

Frequencies

Recorded 118.32 MHz ASOS
Unicom 122.80 MHz CTAF/UNICOM
Warning: Do not use this data for real-world aviation or navigation. No guarantee of current accuracy is given.